Strona główna
METAR-TAF:

METAR-TAF

Lotnisko :

Poznań, Polska

Port lotniczy Poznań-Ławica

Szerokość geograficzna: 52-25N, Długość geograficzna: 016-50E, wysokość: 86 m

Aktualna obserwacja pogody

Raport powstał 34 minut temu, godzina 14:00 UTC
Wiatr 11 kt od zachodnio-południowy zachód
Temperatura 8°C
Wilgotność 71%
Ciśnienie 1009 hPa
Widzialność 10 km lub więcej
Zachmurzenie całkowite na wysokości 2500 ft

METAR: EPPO 261400Z 24011KT 9999 OVC025 08/03 Q1009 R10/29//95

czas: 15:34 (14:34 UTC)

Prognoza

Raport powstał 3 godziny i 30 minut temu, godzina 11:04 UTC
Prognoza ważna od 26 godzina 12 UTC do 27 godzina 12 UTC
Wiatr 10 kt od południowy zachód
Widzialność 10 km lub więcej
Przerywane chmury na wysokości 2500 ft
Prawdopodobieństwo 40%
od 26 godzina 16 UTC do 26 godzina 18 UTC
Przerywane chmury na wysokości 1400 ft

TAF: EPPO 261104Z 2612/2712 23010KT 9999 BKN025 PROB40 2616/2618 BKN014

Obserwacja i prognoza pogody dla ponad 4000 lotnisk (raport METAR i TAF).

Dostępne stacje oznaczono żółtymi i czerwonymi punktami na mapie.

Najedź kursorem aby zobaczyć nazwę stacji.

Kliknij aby zobaczyć obserwacje i prognozy pogody.

Aby zmienić mapę: kliknij na zielony przycisk z czarnym krzyżykiem, aby powiększyć; na zielony przycisk z myślnikiem, aby pomniejszyć; na zielone strzałki, aby przejść do map sąsiednich.


METAR-TAF: